Time;durP1;ratioP1;P1;durP2;ratioP2;P2;SDS_P1;SDS_P2;PMS_P1;PMS_P2;Temp;Humidity;BMP_temperature;BMP_pressure;BME280_temperature;BME280_humidity;BME280_pressure;Samples;Min_cycle;Max_cycle;Signal;HPM_P1;HPM_P2
2022/01/04 00:00:59;;;;;;;26.98;4.40;;;7.20;99.90;;;;;;6186188;23;20159;-84
2022/01/04 00:03:24;;;;;;;38.45;6.55;;;7.20;99.90;;;;;;6191686;23;20469;-85
2022/01/04 00:05:50;;;;;;;26.15;5.18;;;7.20;99.90;;;;;;6165641;23;20038;-85
2022/01/04 00:08:16;;;;;;;22.48;4.32;;;7.20;99.90;;;;;;6159874;23;20468;-84
2022/01/04 00:10:42;;;;;;;18.95;4.22;;;7.10;99.90;;;;;;6134245;23;20021;-85
2022/01/04 00:13:24;;;;;;;27.77;5.28;;;7.10;99.90;;;;;;6186424;23;20079;-85
2022/01/04 00:15:54;;;;;;;23.63;5.45;;;7.20;99.90;;;;;;6184542;23;20330;-84
2022/01/04 00:18:20;;;;;;;31.88;4.63;;;7.20;99.90;;;;;;6159575;23;20111;-84
2022/01/04 00:20:46;;;;;;;34.72;6.72;;;7.20;99.90;;;;;;6185668;23;20100;-84
2022/01/04 00:23:12;;;;;;;31.30;5.28;;;7.20;99.90;;;;;;6163694;23;20072;-85
2022/01/04 00:25:38;;;;;;;35.58;4.78;;;7.20;99.90;;;;;;6187264;23;20415;-85
2022/01/04 00:28:07;;;;;;;38.80;4.95;;;7.20;99.90;;;;;;6158876;23;20024;-85
2022/01/04 00:30:38;;;;;;;29.15;5.43;;;7.20;99.90;;;;;;6186138;23;20022;-84
2022/01/04 00:33:05;;;;;;;28.08;4.35;;;7.20;99.90;;;;;;6186449;23;20021;-84
2022/01/04 00:35:32;;;;;;;29.13;6.15;;;7.20;99.90;;;;;;6159303;23;20064;-85
2022/01/04 00:37:58;;;;;;;30.60;5.35;;;7.20;99.90;;;;;;6185828;23;20156;-85
2022/01/04 00:40:24;;;;;;;23.27;6.07;;;7.20;99.90;;;;;;6186023;23;20020;-85
2022/01/04 00:42:51;;;;;;;35.28;5.22;;;7.20;99.90;;;;;;6186330;23;20345;-84
2022/01/04 00:45:17;;;;;;;26.52;5.53;;;7.30;99.90;;;;;;6186561;23;20013;-85
2022/01/04 00:49:09;;;;;;;27.90;3.95;;;7.30;99.90;;;;;;6159712;23;20063;-85
2022/01/04 00:50:29;;;;;;;25.70;4.78;;;7.30;99.90;;;;;;6160910;23;20028;-86
2022/01/04 00:52:56;;;;;;;35.67;5.65;;;7.30;99.90;;;;;;6164173;23;20021;-85
2022/01/04 00:55:22;;;;;;;28.83;5.20;;;7.20;99.90;;;;;;6189891;23;20028;-85
2022/01/04 00:57:48;;;;;;;33.50;6.93;;;7.30;99.90;;;;;;6189433;23;20017;-85
2022/01/04 01:00:16;;;;;;;27.58;4.45;;;7.30;99.90;;;;;;6161870;23;20060;-86
2022/01/04 01:02:50;;;;;;;40.63;7.43;;;7.30;99.90;;;;;;6160089;23;20021;-84
2022/01/04 01:05:17;;;;;;;27.10;5.82;;;7.30;99.90;;;;;;6158959;23;20025;-84
2022/01/04 01:07:43;;;;;;;31.13;5.50;;;7.30;99.90;;;;;;6134347;23;20021;-85
2022/01/04 01:12:40;;;;;;;29.92;5.50;;;7.30;99.90;;;;;;6185600;23;20378;-84
2022/01/04 01:15:07;;;;;;;26.23;4.88;;;7.40;99.90;;;;;;6159142;23;20021;-83
2022/01/04 01:17:34;;;;;;;24.40;4.65;;;7.40;99.90;;;;;;6184492;23;20511;-84
2022/01/04 01:20:01;;;;;;;26.20;4.80;;;7.30;99.90;;;;;;6138624;23;20021;-84
2022/01/04 01:22:27;;;;;;;29.80;4.80;;;7.40;99.90;;;;;;6158865;23;20028;-84
2022/01/04 01:24:53;;;;;;;25.70;5.13;;;7.40;99.90;;;;;;6185557;23;20135;-83
2022/01/04 01:27:18;;;;;;;36.15;5.90;;;7.40;99.90;;;;;;6158865;23;20036;-85
2022/01/04 01:29:44;;;;;;;28.90;4.95;;;7.40;99.90;;;;;;6185708;23;20121;-85
2022/01/04 01:32:10;;;;;;;26.23;5.07;;;7.40;99.90;;;;;;6183943;23;20051;-83
2022/01/04 01:34:42;;;;;;;29.80;5.90;;;7.40;99.90;;;;;;6185701;23;20060;-85
2022/01/04 01:37:08;;;;;;;34.42;5.63;;;7.40;99.90;;;;;;6183873;23;20384;-86
2022/01/04 01:39:36;;;;;;;33.22;6.28;;;7.40;99.90;;;;;;6111256;23;20059;-84
2022/01/04 01:42:03;;;;;;;31.40;4.75;;;7.40;99.90;;;;;;6164546;23;20028;-85
2022/01/04 01:44:33;;;;;;;39.05;7.35;;;7.40;99.90;;;;;;6190966;23;20100;-84
2022/01/04 01:47:00;;;;;;;27.48;6.70;;;7.50;99.90;;;;;;6158307;23;20025;-85
2022/01/04 01:49:26;;;;;;;29.83;5.35;;;7.50;99.90;;;;;;6158284;23;20036;-86
2022/01/04 01:51:52;;;;;;;34.10;6.28;;;7.50;99.90;;;;;;6158569;23;20353;-84
2022/01/04 01:54:22;;;;;;;32.03;5.43;;;7.50;99.90;;;;;;6156235;23;20456;-85
2022/01/04 01:57:12;;;;;;;30.73;5.22;;;7.40;99.90;;;;;;6111101;23;20021;-86
2022/01/04 01:59:38;;;;;;;41.85;6.18;;;7.40;99.90;;;;;;6021864;23;20404;-86
2022/01/04 02:02:04;;;;;;;26.05;6.95;;;7.50;99.90;;;;;;6069670;23;20105;-86
2022/01/04 02:04:33;;;;;;;32.13;5.60;;;7.50;99.90;;;;;;6070318;23;20564;-85
2022/01/04 02:06:59;;;;;;;36.53;8.73;;;7.50;99.90;;;;;;6046196;23;20042;-84
2022/01/04 02:09:35;;;;;;;36.88;7.40;;;7.40;99.90;;;;;;6047624;23;20030;-85
2022/01/04 02:12:01;;;;;;;39.40;6.95;;;7.50;99.90;;;;;;6094046;23;20018;-85
2022/01/04 02:14:28;;;;;;;26.20;6.55;;;7.50;99.90;;;;;;6070361;23;20034;-85
2022/01/04 02:16:54;;;;;;;34.13;8.30;;;7.40;99.90;;;;;;6071469;23;20057;-84
2022/01/04 02:19:21;;;;;;;29.63;6.90;;;7.50;99.90;;;;;;6072573;23;20026;-84
2022/01/04 02:21:46;;;;;;;32.08;7.55;;;7.50;99.90;;;;;;6070852;23;20026;-85
2022/01/04 02:24:12;;;;;;;24.92;6.15;;;7.50;99.90;;;;;;6070447;23;20151;-84
2022/01/04 02:26:40;;;;;;;37.05;9.23;;;7.50;99.90;;;;;;6076040;23;20034;-85
2022/01/04 02:29:07;;;;;;;29.67;7.45;;;7.50;99.90;;;;;;6094863;23;20022;-85
2022/01/04 02:31:35;;;;;;;27.17;7.25;;;7.50;99.90;;;;;;6122780;23;20496;-85
2022/01/04 02:34:01;;;;;;;38.85;8.73;;;7.50;99.90;;;;;;6155000;23;20079;-85
2022/01/04 02:36:26;;;;;;;36.42;8.65;;;7.50;99.90;;;;;;6128552;23;20025;-85
2022/01/04 02:38:52;;;;;;;34.58;8.13;;;7.50;99.90;;;;;;6155036;23;20072;-85
2022/01/04 02:41:19;;;;;;;36.38;7.47;;;7.50;99.90;;;;;;6128405;23;20418;-85
2022/01/04 02:43:44;;;;;;;37.22;7.10;;;7.50;99.90;;;;;;6155487;23;20025;-85
2022/01/04 02:46:10;;;;;;;42.78;7.70;;;7.50;99.90;;;;;;6158504;23;20033;-86
2022/01/04 02:48:43;;;;;;;43.72;8.52;;;7.50;99.90;;;;;;6153172;23;20059;-84
2022/01/04 02:51:10;;;;;;;44.13;8.68;;;7.50;99.90;;;;;;6152670;23;20033;-84
2022/01/04 02:53:36;;;;;;;56.92;7.88;;;7.50;99.90;;;;;;6154862;23;20021;-84
2022/01/04 02:56:02;;;;;;;33.38;7.45;;;7.50;99.90;;;;;;6153246;23;20021;-85
2022/01/04 02:58:28;;;;;;;35.63;7.85;;;7.50;99.90;;;;;;6152958;23;20064;-85
2022/01/04 03:00:54;;;;;;;39.40;8.02;;;7.50;99.90;;;;;;6152854;23;20033;-85
2022/01/04 03:03:20;;;;;;;34.75;7.38;;;7.50;99.90;;;;;;6152954;23;20028;-86
2022/01/04 03:05:45;;;;;;;44.75;8.48;;;7.50;99.90;;;;;;6153267;23;20072;-84
2022/01/04 03:08:11;;;;;;;33.22;8.85;;;7.50;99.90;;;;;;6128375;23;20021;-85
2022/01/04 03:10:37;;;;;;;41.97;7.70;;;7.50;99.90;;;;;;6154160;23;20018;-84
2022/01/04 03:13:05;;;;;;;34.90;7.20;;;7.50;99.90;;;;;;6157348;23;20109;-85
2022/01/04 03:15:31;;;;;;;38.22;7.88;;;7.50;99.90;;;;;;6104441;23;20056;-85
2022/01/04 03:17:56;;;;;;;32.60;7.07;;;7.60;99.90;;;;;;6156630;23;20048;-84
2022/01/04 03:20:22;;;;;;;28.77;7.32;;;7.50;99.90;;;;;;6132211;23;20029;-85
2022/01/04 03:22:51;;;;;;;37.88;8.70;;;7.60;99.90;;;;;;6166079;23;20030;-85
2022/01/04 03:25:17;;;;;;;37.60;7.22;;;7.60;99.90;;;;;;6128007;23;20026;-85
2022/01/04 03:27:43;;;;;;;28.75;6.97;;;7.50;99.90;;;;;;6157251;23;20021;-85
2022/01/04 03:30:09;;;;;;;46.63;8.98;;;7.60;99.90;;;;;;6184532;23;20021;-84
2022/01/04 03:32:35;;;;;;;46.25;10.75;;;7.50;99.90;;;;;;6158101;23;20021;-84
2022/01/04 03:35:01;;;;;;;47.00;10.57;;;7.50;99.90;;;;;;6158246;23;20056;-85
2022/01/04 03:37:27;;;;;;;36.63;9.45;;;7.50;99.90;;;;;;6158958;23;20053;-85
2022/01/04 03:39:54;;;;;;;47.40;11.65;;;7.50;99.90;;;;;;6184930;23;20032;-85
2022/01/04 03:42:20;;;;;;;50.95;13.02;;;7.50;99.90;;;;;;6162776;23;20079;-87
2022/01/04 03:44:45;;;;;;;39.28;10.43;;;7.50;99.90;;;;;;6187275;23;20017;-85
2022/01/04 03:47:11;;;;;;;42.45;10.65;;;7.50;99.90;;;;;;6159692;23;20029;-85
2022/01/04 03:49:37;;;;;;;44.83;9.93;;;7.50;99.90;;;;;;6186037;23;20396;-85
2022/01/04 03:52:03;;;;;;;45.50;10.75;;;7.50;99.90;;;;;;6159594;23;20056;-85
2022/01/04 03:54:28;;;;;;;45.42;11.95;;;7.50;99.90;;;;;;6159626;23;20133;-86
2022/01/04 03:56:54;;;;;;;35.35;10.77;;;7.50;99.90;;;;;;6184332;23;20033;-85
2022/01/04 03:59:20;;;;;;;45.85;9.93;;;7.50;99.90;;;;;;6186436;23;20021;-85
2022/01/04 04:01:47;;;;;;;39.88;11.20;;;7.40;99.90;;;;;;6160043;23;20024;-84
2022/01/04 04:04:13;;;;;;;32.15;10.95;;;7.40;99.90;;;;;;6184850;23;20107;-86
2022/01/04 04:06:40;;;;;;;48.58;11.48;;;7.40;99.90;;;;;;6186813;23;20020;-85
2022/01/04 04:09:06;;;;;;;44.35;11.40;;;7.50;99.90;;;;;;6160870;23;20396;-85
2022/01/04 04:11:32;;;;;;;47.95;11.75;;;7.50;99.90;;;;;;6163206;23;20087;-83
2022/01/04 04:13:57;;;;;;;48.53;10.77;;;7.50;99.90;;;;;;6191197;23;20029;-85
2022/01/04 04:16:41;;;;;;;48.40;12.23;;;7.50;99.90;;;;;;6185684;23;20156;-85
2022/01/04 04:19:08;;;;;;;37.33;12.10;;;7.50;99.90;;;;;;6184116;23;20028;-86
2022/01/04 04:21:33;;;;;;;44.55;12.80;;;7.50;99.90;;;;;;6159644;23;20516;-84
2022/01/04 04:24:00;;;;;;;50.75;12.60;;;7.50;99.90;;;;;;6134544;23;20022;-84
2022/01/04 04:26:29;;;;;;;44.97;12.98;;;7.50;99.90;;;;;;6159997;23;20465;-84
2022/01/04 04:28:54;;;;;;;48.45;12.43;;;7.50;99.90;;;;;;6183856;23;20025;-84
2022/01/04 04:31:20;;;;;;;44.50;12.32;;;7.50;99.90;;;;;;6159298;23;20349;-84
2022/01/04 04:33:46;;;;;;;46.08;12.30;;;7.50;99.90;;;;;;6134385;23;20335;-85
2022/01/04 04:36:12;;;;;;;50.25;10.30;;;7.50;99.90;;;;;;6159131;23;20028;-84
2022/01/04 04:38:38;;;;;;;46.28;12.80;;;7.50;99.90;;;;;;6159417;23;20032;-84
2022/01/04 04:41:03;;;;;;;49.70;10.63;;;7.50;99.90;;;;;;6159549;23;20036;-84
2022/01/04 04:43:29;;;;;;;39.03;8.70;;;7.60;99.90;;;;;;6186136;23;20017;-86
2022/01/04 04:45:55;;;;;;;49.83;10.63;;;7.50;99.90;;;;;;6159650;23;20036;-86
2022/01/04 04:48:29;;;;;;;39.10;8.70;;;7.60;99.90;;;;;;6158573;23;20025;-86
2022/01/04 04:50:55;;;;;;;40.95;9.70;;;7.60;99.90;;;;;;6189199;23;20025;-86
2022/01/04 04:53:21;;;;;;;36.90;9.63;;;7.50;99.90;;;;;;6186409;23;20468;-84
2022/01/04 04:55:47;;;;;;;48.47;10.60;;;7.60;99.90;;;;;;6186486;23;20468;-86
2022/01/04 04:58:13;;;;;;;47.42;9.80;;;7.60;99.90;;;;;;6159757;23;20025;-86
2022/01/04 05:00:38;;;;;;;39.13;10.30;;;7.60;99.90;;;;;;6159559;23;20067;-85
2022/01/04 05:03:05;;;;;;;47.17;9.55;;;7.60;99.90;;;;;;6158744;23;20029;-85
2022/01/04 05:05:31;;;;;;;34.47;9.15;;;7.60;99.90;;;;;;6158991;23;20048;-86
2022/01/04 05:07:56;;;;;;;40.47;9.70;;;7.60;99.90;;;;;;6185797;23;20461;-86
2022/01/04 05:10:22;;;;;;;38.05;9.30;;;7.60;99.90;;;;;;6159938;23;20017;-86
2022/01/04 05:12:48;;;;;;;39.00;9.15;;;7.60;99.90;;;;;;6162617;23;20025;-85
2022/01/04 05:15:14;;;;;;;40.78;10.32;;;7.60;99.90;;;;;;6161088;23;20353;-86
2022/01/04 05:17:40;;;;;;;49.60;10.95;;;7.60;99.90;;;;;;6134801;23;20029;-86
2022/01/04 05:20:06;;;;;;;44.17;9.15;;;7.60;99.90;;;;;;6159363;23;20024;-86
2022/01/04 05:22:32;;;;;;;43.47;8.15;;;7.60;99.90;;;;;;6160742;23;20393;-85
2022/01/04 05:24:58;;;;;;;44.03;8.43;;;7.60;99.90;;;;;;6158350;23;20025;-86
2022/01/04 05:27:24;;;;;;;30.30;8.13;;;7.50;99.90;;;;;;6133829;23;20095;-84
2022/01/04 05:29:49;;;;;;;41.38;9.07;;;7.60;99.90;;;;;;6133551;23;20040;-84
2022/01/04 05:32:16;;;;;;;31.75;7.22;;;7.60;99.90;;;;;;6134213;23;20029;-84
2022/01/04 05:34:41;;;;;;;41.58;8.30;;;7.60;99.90;;;;;;6133650;23;20029;-85
2022/01/04 05:37:07;;;;;;;33.08;7.30;;;7.60;99.90;;;;;;6133340;23;20079;-85
2022/01/04 05:39:33;;;;;;;42.35;9.25;;;7.60;99.90;;;;;;6133980;23;20072;-84
2022/01/04 05:41:59;;;;;;;35.65;7.65;;;7.60;99.90;;;;;;6185313;23;20318;-86
2022/01/04 05:44:25;;;;;;;38.85;8.43;;;7.60;99.90;;;;;;6159110;23;20104;-85
2022/01/04 05:46:50;;;;;;;38.28;8.00;;;7.60;99.90;;;;;;6134533;23;20025;-85
2022/01/04 05:49:16;;;;;;;39.17;7.70;;;7.60;99.90;;;;;;6134067;23;20099;-85
2022/01/04 05:51:43;;;;;;;44.30;10.05;;;7.60;99.90;;;;;;6189408;23;20055;-84
2022/01/04 05:54:09;;;;;;;38.25;6.45;;;7.50;99.90;;;;;;6176519;23;20027;-85
2022/01/04 05:56:35;;;;;;;37.05;6.60;;;7.50;99.90;;;;;;6184782;23;20021;-84
2022/01/04 05:59:01;;;;;;;35.78;6.20;;;7.60;99.90;;;;;;6187533;23;20104;-87
2022/01/04 06:01:47;;;;;;;;;;;7.50;99.90;;;;;;6165620;23;20036;-85
2022/01/04 06:04:12;;;;;;;19.83;3.80;;;7.40;99.90;;;;;;6161670;23;20003;-84
2022/01/04 06:06:41;;;;;;;16.33;3.53;;;7.40;99.90;;;;;;6160345;23;20181;-84
2022/01/04 06:09:16;;;;;;;23.05;3.47;;;7.40;99.90;;;;;;6158455;23;20126;-85
2022/01/04 06:11:55;;;;;;;;;;;7.40;99.90;;;;;;6185637;23;20021;-85
2022/01/04 06:17:09;;;;;;;15.65;2.70;;;7.40;99.90;;;;;;6183128;23;20491;-85
2022/01/04 06:19:35;;;;;;;18.42;4.05;;;7.30;99.90;;;;;;6087425;23;20017;-84
2022/01/04 06:22:06;;;;;;;16.40;3.10;;;7.30;99.90;;;;;;6185562;23;20028;-85
2022/01/04 06:24:32;;;;;;;24.45;3.22;;;7.30;99.90;;;;;;6158149;23;20017;-85
2022/01/04 06:26:58;;;;;;;23.50;3.45;;;7.30;99.90;;;;;;6184396;23;20032;-85
2022/01/04 06:29:24;;;;;;;23.25;5.18;;;7.30;99.90;;;;;;6183033;23;20075;-85
2022/01/04 06:31:50;;;;;;;22.60;4.72;;;7.30;99.90;;;;;;6185202;23;20449;-86
2022/01/04 06:34:16;;;;;;;25.05;4.65;;;7.30;99.90;;;;;;6184982;23;20028;-85
2022/01/04 06:36:42;;;;;;;24.25;4.22;;;7.30;99.90;;;;;;6158322;23;20063;-86
2022/01/04 06:39:07;;;;;;;21.90;4.78;;;7.40;99.90;;;;;;6158152;23;20056;-85
2022/01/04 06:41:37;;;;;;;23.08;4.28;;;7.30;99.90;;;;;;6158489;23;20076;-85
2022/01/04 06:44:04;;;;;;;36.17;4.78;;;7.30;99.90;;;;;;6109432;23;20457;-85
2022/01/04 06:46:30;;;;;;;25.42;5.13;;;7.30;99.90;;;;;;6157263;23;20021;-86
2022/01/04 06:49:02;;;;;;;20.80;4.80;;;7.30;99.90;;;;;;6184067;23;20534;-85
2022/01/04 06:51:28;;;;;;;19.90;4.03;;;7.30;99.90;;;;;;6137114;23;20021;-87
2022/01/04 06:53:53;;;;;;;18.35;4.40;;;7.20;99.90;;;;;;6185342;23;20028;-86
2022/01/04 06:56:19;;;;;;;16.80;3.92;;;7.20;99.90;;;;;;6185672;23;20029;-85
2022/01/04 06:58:45;;;;;;;21.35;3.65;;;7.20;99.90;;;;;;6187964;23;20075;-85
2022/01/04 07:01:11;;;;;;;29.42;5.35;;;7.20;99.90;;;;;;6162183;23;20025;-85
2022/01/04 07:03:37;;;;;;;18.30;3.92;;;7.20;99.90;;;;;;6157864;23;20021;-86
2022/01/04 07:06:04;;;;;;;26.58;3.45;;;7.10;99.90;;;;;;6157274;23;20070;-85
2022/01/04 07:08:30;;;;;;;22.33;4.15;;;7.10;99.90;;;;;;6182662;23;20029;-86
2022/01/04 07:10:56;;;;;;;24.85;5.70;;;7.10;99.90;;;;;;6157831;23;20036;-85
2022/01/04 07:13:29;;;;;;;19.20;3.90;;;7.10;99.90;;;;;;6154792;23;20021;-85
2022/01/04 07:15:55;;;;;;;23.63;5.28;;;7.00;99.90;;;;;;6183290;23;20029;-84
2022/01/04 07:18:21;;;;;;;24.60;4.85;;;7.10;99.90;;;;;;6159913;23;20018;-85
2022/01/04 07:20:48;;;;;;;27.02;5.35;;;7.00;99.90;;;;;;6159671;23;20021;-85
2022/01/04 07:23:13;;;;;;;25.52;4.95;;;7.10;99.90;;;;;;6184159;23;20483;-86
2022/01/04 07:25:44;;;;;;;18.33;4.20;;;7.10;99.90;;;;;;6109087;23;20442;-86
2022/01/04 07:28:10;;;;;;;24.17;4.45;;;7.00;99.90;;;;;;6157858;23;20036;-86
2022/01/04 07:30:44;;;;;;;28.93;4.60;;;7.10;99.90;;;;;;6157882;23;20032;-85
2022/01/04 07:33:10;;;;;;;23.20;4.40;;;7.00;99.90;;;;;;6182780;23;20257;-86
2022/01/04 07:35:36;;;;;;;29.85;5.38;;;7.00;99.90;;;;;;6157716;23;20017;-86
2022/01/04 07:38:05;;;;;;;30.55;5.63;;;7.00;99.90;;;;;;6133792;23;20079;-86
2022/01/04 07:40:30;;;;;;;23.52;6.07;;;7.10;99.90;;;;;;6133266;23;20413;-86
2022/01/04 07:43:01;;;;;;;29.80;6.15;;;7.10;99.90;;;;;;6158080;23;20064;-84
2022/01/04 07:45:28;;;;;;;13.20;2.22;;;7.10;99.90;;;;;;6138111;23;20025;-85
2022/01/04 07:47:55;;;;;;;12.15;1.63;;;7.00;99.90;;;;;;6165807;23;20052;-84
2022/01/04 07:50:21;;;;;;;11.63;1.58;;;7.00;99.90;;;;;;6164787;23;20080;-84
2022/01/04 07:52:47;;;;;;;11.13;1.40;;;6.90;99.90;;;;;;6133487;23;20021;-85
2022/01/04 07:55:14;;;;;;;17.58;1.55;;;6.90;99.90;;;;;;6157461;23;20025;-84
2022/01/04 07:57:41;;;;;;;16.98;1.88;;;6.80;99.90;;;;;;6157865;23;20020;-83
2022/01/04 08:00:09;;;;;;;12.75;1.48;;;6.80;99.90;;;;;;6182172;23;20488;-84
2022/01/04 08:02:35;;;;;;;17.73;2.53;;;6.70;99.90;;;;;;6157597;23;20353;-84
2022/01/04 08:05:01;;;;;;;14.05;1.17;;;6.70;99.90;;;;;;6157040;23;20056;-84
2022/01/04 08:07:27;;;;;;;6.72;1.05;;;6.60;99.90;;;;;;6157167;23;20071;-84
2022/01/04 08:09:56;;;;;;;11.73;1.00;;;6.60;99.90;;;;;;6158124;23;20350;-84
2022/01/04 08:12:22;;;;;;;13.13;1.17;;;6.50;99.90;;;;;;6108666;23;20017;-84
2022/01/04 08:14:49;;;;;;;7.40;0.90;;;6.40;99.90;;;;;;6157448;23;20091;-84
2022/01/04 08:17:15;;;;;;;7.05;1.25;;;6.40;99.90;;;;;;6133214;23;20017;-84
2022/01/04 08:19:40;;;;;;;12.57;1.35;;;6.30;99.90;;;;;;6158204;23;20025;-84
2022/01/04 08:22:06;;;;;;;6.53;1.60;;;6.30;99.90;;;;;;6159547;23;20029;-86
2022/01/04 08:24:32;;;;;;;8.18;1.13;;;6.30;99.90;;;;;;6186100;23;20071;-85
2022/01/04 08:26:58;;;;;;;11.25;1.45;;;6.30;99.90;;;;;;6158238;23;20159;-84
2022/01/04 08:29:34;;;;;;;4.68;0.90;;;6.30;99.90;;;;;;6134849;23;20510;-85
2022/01/04 08:32:20;;;;;;;8.50;1.10;;;6.30;99.90;;;;;;6134817;23;20021;-84
2022/01/04 08:34:48;;;;;;;9.23;0.73;;;6.30;99.90;;;;;;6109954;23;20021;-84
2022/01/04 08:37:14;;;;;;;5.22;0.55;;;6.30;99.90;;;;;;6114539;23;20087;-85
2022/01/04 08:39:39;;;;;;;6.40;0.82;;;6.30;99.90;;;;;;6163087;23;20388;-84
2022/01/04 08:42:05;;;;;;;6.90;0.70;;;6.20;99.90;;;;;;6185727;23;20024;-84
2022/01/04 08:44:32;;;;;;;8.63;0.77;;;6.20;99.90;;;;;;6158999;23;20021;-84
2022/01/04 08:46:59;;;;;;;3.70;0.60;;;6.30;99.90;;;;;;6183840;23;20029;-86
2022/01/04 08:49:25;;;;;;;8.20;1.00;;;6.20;99.90;;;;;;6158576;23;20020;-84
2022/01/04 08:51:51;;;;;;;7.32;1.00;;;6.20;99.90;;;;;;6185954;23;20025;-84
2022/01/04 08:54:17;;;;;;;6.03;0.90;;;6.30;99.90;;;;;;6161371;23;20025;-84
2022/01/04 08:56:43;;;;;;;10.68;0.95;;;6.30;99.90;;;;;;6185852;23;20025;-84
2022/01/04 08:59:10;;;;;;;5.82;0.60;;;6.30;99.90;;;;;;6158760;23;20025;-84
2022/01/04 09:01:51;;;;;;;7.15;0.52;;;6.30;99.90;;;;;;6133907;23;20021;-85
2022/01/04 09:04:17;;;;;;;6.10;1.50;;;6.30;99.90;;;;;;6133892;23;20017;-85
2022/01/04 09:06:46;;;;;;;6.65;0.70;;;6.20;99.90;;;;;;6087449;23;20457;-84
2022/01/04 09:09:12;;;;;;;11.07;0.90;;;6.20;99.90;;;;;;6158615;23;20021;-85
2022/01/04 09:11:38;;;;;;;10.15;2.13;;;6.20;99.90;;;;;;6185559;23;20330;-85
2022/01/04 09:19:21;;;;;;;7.07;0.80;;;6.10;99.90;;;;;;6183494;23;20031;-83
2022/01/04 09:21:47;;;;;;;3.60;0.65;;;6.10;99.90;;;;;;6185597;23;20060;-83
2022/01/04 09:24:13;;;;;;;6.28;0.60;;;6.00;99.90;;;;;;6159769;23;20021;-83
2022/01/04 09:26:39;;;;;;;4.03;0.60;;;6.00;99.90;;;;;;6191135;23;20357;-83
2022/01/04 09:29:05;;;;;;;3.20;0.63;;;5.90;99.90;;;;;;6139262;23;20028;-84
2022/01/04 09:31:34;;;;;;;3.00;0.35;;;5.90;99.90;;;;;;6165652;23;20029;-84
2022/01/04 09:34:01;;;;;;;11.70;0.93;;;5.90;99.90;;;;;;6163753;23;20057;-84
2022/01/04 09:36:34;;;;;;;8.63;1.40;;;5.90;99.90;;;;;;6134220;23;20025;-85
2022/01/04 09:39:00;;;;;;;7.45;0.77;;;5.80;99.90;;;;;;6158756;23;20055;-83
2022/01/04 09:41:27;;;;;;;6.13;0.50;;;5.80;99.90;;;;;;6185390;23;20477;-84
2022/01/04 09:43:53;;;;;;;3.55;0.93;;;5.80;99.90;;;;;;6159160;23;20021;-84
2022/01/04 09:46:19;;;;;;;6.82;0.90;;;5.90;99.90;;;;;;6157600;23;20036;-85
2022/01/04 09:48:45;;;;;;;14.95;1.65;;;5.80;99.90;;;;;;6185090;23;20017;-84
2022/01/04 09:51:12;;;;;;;5.45;0.90;;;5.90;99.90;;;;;;6158817;23;20441;-84
2022/01/04 09:53:38;;;;;;;11.98;1.50;;;5.90;99.90;;;;;;6185289;23;20029;-84
2022/01/04 09:56:04;;;;;;;4.25;0.85;;;5.90;99.90;;;;;;6183242;23;20017;-83
2022/01/04 09:58:30;;;;;;;8.82;1.58;;;5.80;99.90;;;;;;6183240;23;20029;-84
2022/01/04 10:00:59;;;;;;;16.00;2.28;;;5.80;99.90;;;;;;6134954;23;20051;-84
2022/01/04 10:03:29;;;;;;;9.95;0.98;;;5.80;99.90;;;;;;6185331;23;20021;-85
2022/01/04 10:06:15;;;;;;;13.38;2.30;;;5.70;99.90;;;;;;6158693;23;20464;-85
2022/01/04 10:08:53;;;;;;;10.27;0.82;;;5.70;99.90;;;;;;6188305;23;20092;-84
2022/01/04 10:11:30;;;;;;;5.82;1.65;;;5.70;99.90;;;;;;6163676;23;20089;-85
2022/01/04 10:13:57;;;;;;;5.50;0.90;;;5.70;99.90;;;;;;6158321;23;20017;-85
2022/01/04 10:16:23;;;;;;;7.93;1.42;;;5.70;99.90;;;;;;6158238;23;20029;-85
2022/01/04 10:18:49;;;;;;;12.27;1.23;;;5.70;99.90;;;;;;6185010;23;20445;-85
2022/01/04 10:21:16;;;;;;;12.18;1.42;;;5.60;99.90;;;;;;6185697;23;20349;-84
2022/01/04 10:23:45;;;;;;;13.18;3.08;;;5.60;99.90;;;;;;6135786;23;20381;-83
2022/01/04 10:26:11;;;;;;;6.60;0.90;;;5.60;99.90;;;;;;6161668;23;20025;-84
2022/01/04 10:28:42;;;;;;;7.53;1.20;;;5.60;99.90;;;;;;6185090;23;20087;-83
2022/01/04 10:31:18;;;;;;;8.65;1.50;;;5.60;99.90;;;;;;6134722;23;20092;-84
2022/01/04 10:33:44;;;;;;;3.95;0.73;;;5.60;99.90;;;;;;6182947;23;20464;-84
2022/01/04 10:36:12;;;;;;;6.63;1.08;;;5.60;99.90;;;;;;6182807;23;20032;-83
2022/01/04 10:38:46;;;;;;;3.80;0.55;;;5.60;99.90;;;;;;6134728;23;20051;-84
2022/01/04 10:41:25;;;;;;;3.78;0.70;;;5.60;99.90;;;;;;6187232;23;20099;-84
2022/01/04 10:44:03;;;;;;;5.93;1.20;;;5.60;99.90;;;;;;6159289;23;20025;-84
2022/01/04 10:46:42;;;;;;;3.78;0.70;;;5.60;99.90;;;;;;6183101;23;20083;-83
2022/01/04 10:49:22;;;;;;;5.10;0.70;;;5.60;99.90;;;;;;6158071;23;20021;-84
2022/01/04 10:52:09;;;;;;;5.43;1.10;;;5.60;99.90;;;;;;6157890;23;20032;-83
2022/01/04 10:54:38;;;;;;;6.07;0.80;;;5.60;99.90;;;;;;6182806;23;20572;-84
2022/01/04 10:57:09;;;;;;;10.48;1.00;;;5.60;99.90;;;;;;6158112;23;20053;-84
2022/01/04 10:59:35;;;;;;;6.35;1.15;;;5.60;99.90;;;;;;6157193;23;20025;-85
2022/01/04 11:02:02;;;;;;;6.57;0.80;;;5.70;99.90;;;;;;6133399;23;20035;-85
2022/01/04 11:04:27;;;;;;;4.47;0.95;;;5.70;99.90;;;;;;6132425;23;20056;-85
2022/01/04 11:07:02;;;;;;;8.02;1.00;;;5.90;99.90;;;;;;6157979;23;20028;-85
2022/01/04 11:09:29;;;;;;;6.28;1.40;;;6.10;99.90;;;;;;6133173;23;20017;-84
2022/01/04 11:11:55;;;;;;;3.58;0.98;;;6.20;99.90;;;;;;6184887;23;20032;-85
2022/01/04 11:14:21;;;;;;;7.82;1.27;;;6.20;99.90;;;;;;6158163;23;20017;-85
2022/01/04 11:16:46;;;;;;;7.90;1.08;;;6.30;99.90;;;;;;6161676;23;20101;-84
2022/01/04 11:19:19;;;;;;;10.38;1.88;;;6.30;99.90;;;;;;6158454;23;20337;-85
2022/01/04 11:21:45;;;;;;;10.05;1.63;;;6.30;99.90;;;;;;6157562;23;20021;-84
2022/01/04 11:24:13;;;;;;;8.95;1.42;;;6.30;99.90;;;;;;6182550;23;20028;-84
2022/01/04 11:26:44;;;;;;;8.40;1.80;;;6.40;99.90;;;;;;6182754;23;20037;-85
2022/01/04 11:29:10;;;;;;;10.18;2.22;;;6.40;99.90;;;;;;6133251;23;20049;-85
2022/01/04 11:31:44;;;;;;;12.85;1.80;;;6.30;99.90;;;;;;6184685;23;20049;-84
2022/01/04 11:34:14;;;;;;;9.57;1.57;;;6.40;99.90;;;;;;6156503;23;20021;-84
2022/01/04 11:37:04;;;;;;;7.00;1.65;;;6.30;99.90;;;;;;6157951;23;20267;-84
2022/01/04 11:39:48;;;;;;;9.98;1.55;;;6.20;99.90;;;;;;6156362;23;20464;-85
2022/01/04 11:42:35;;;;;;;4.23;1.00;;;6.10;99.90;;;;;;6157230;23;20511;-84
2022/01/04 11:45:02;;;;;;;6.00;1.27;;;6.00;99.90;;;;;;6158930;23;20025;-82
2022/01/04 11:47:30;;;;;;;11.50;1.35;;;6.00;99.90;;;;;;6163506;23;20429;-84
2022/01/04 11:50:24;;;;;;;4.07;1.02;;;6.00;99.90;;;;;;6190729;23;20032;-84
2022/01/04 11:52:56;;;;;;;9.95;1.58;;;6.00;99.90;;;;;;6182893;23;20100;-84
2022/01/04 11:55:33;;;;;;;6.40;1.33;;;6.00;99.90;;;;;;6133064;23;20497;-84
2022/01/04 11:58:07;;;;;;;6.85;1.27;;;5.90;99.90;;;;;;6183647;23;20035;-84
2022/01/04 12:00:37;;;;;;;7.83;1.37;;;5.90;99.90;;;;;;6135165;23;20016;-85
2022/01/04 12:03:11;;;;;;;15.27;1.88;;;5.90;99.90;;;;;;6159345;23;20296;-85
2022/01/04 12:05:39;;;;;;;9.00;1.45;;;6.00;99.90;;;;;;6184843;23;20040;-85
2022/01/04 12:08:19;;;;;;;10.10;2.42;;;6.00;99.90;;;;;;6187288;23;20092;-84
2022/01/04 12:10:46;;;;;;;11.95;1.38;;;6.00;99.90;;;;;;6159612;23;20036;-86
2022/01/04 12:13:46;;;;;;;7.43;1.10;;;6.10;99.90;;;;;;6184309;23;20477;-83
2022/01/04 12:16:12;;;;;;;8.55;1.70;;;6.10;99.90;;;;;;6158802;23;20059;-84
2022/01/04 12:18:38;;;;;;;12.75;2.45;;;6.10;99.90;;;;;;6187121;23;20365;-86
2022/01/04 12:21:17;;;;;;;5.57;0.82;;;6.10;99.90;;;;;;6134836;23;20031;-86
2022/01/04 12:23:45;;;;;;;6.80;0.80;;;6.10;99.90;;;;;;6135231;23;20528;-85
2022/01/04 12:26:16;;;;;;;6.47;1.17;;;6.00;99.90;;;;;;6184884;23;20025;-85
2022/01/04 12:28:58;;;;;;;6.25;1.27;;;6.00;99.90;;;;;;6159504;23;20071;-86
2022/01/04 12:31:33;;;;;;;7.40;2.20;;;6.00;99.90;;;;;;6159702;23;20025;-86
2022/01/04 12:34:46;;;;;;;13.00;1.90;;;6.00;99.90;;;;;;6162709;23;20052;-85
2022/01/04 12:37:36;;;;;;;11.32;1.30;;;6.00;99.90;;;;;;6013709;23;20482;-85
2022/01/04 12:40:20;;;;;;;17.15;1.70;;;6.00;99.90;;;;;;6037930;23;20025;-85
2022/01/04 12:42:46;;;;;;;6.63;0.88;;;6.00;99.90;;;;;;6014975;23;20399;-84
2022/01/04 12:45:13;;;;;;;6.63;1.77;;;6.00;99.90;;;;;;6015526;23;20510;-83
2022/01/04 12:47:38;;;;;;;7.10;1.20;;;5.90;99.90;;;;;;6016631;23;20031;-85
2022/01/04 12:50:07;;;;;;;7.55;1.10;;;6.00;99.90;;;;;;6017550;23;20103;-84
2022/01/04 12:52:33;;;;;;;5.30;1.25;;;6.00;99.90;;;;;;6014346;23;20023;-85
2022/01/04 12:54:59;;;;;;;10.15;1.95;;;5.90;99.90;;;;;;6012521;23;20531;-86
2022/01/04 12:57:28;;;;;;;12.23;1.20;;;5.90;99.90;;;;;;6012751;23;20569;-86
2022/01/04 12:59:56;;;;;;;12.15;1.15;;;5.80;99.90;;;;;;6013536;23;20042;-86
2022/01/04 13:02:27;;;;;;;5.80;1.20;;;5.80;99.90;;;;;;6036943;23;20486;-85
2022/01/04 13:04:59;;;;;;;11.60;1.80;;;5.80;99.90;;;;;;6013283;23;20341;-86